sensor_id;sensor_type;location;lat;lon;timestamp;P1;durP1;ratioP1;P2;durP2;ratioP2
46355;SDS011;32066;49.474;11.106;2023-10-09T00:00:12;10.75;;;5.85;;
46355;SDS011;32066;49.474;11.106;2023-10-09T00:03:15;10.43;;;5.85;;
46355;SDS011;32066;49.474;11.106;2023-10-09T00:05:47;11.07;;;5.57;;
46355;SDS011;32066;49.474;11.106;2023-10-09T00:08:18;11.43;;;5.40;;
46355;SDS011;32066;49.474;11.106;2023-10-09T00:10:59;9.90;;;5.45;;
46355;SDS011;32066;49.474;11.106;2023-10-09T00:13:38;9.07;;;4.60;;
46355;SDS011;32066;49.474;11.106;2023-10-09T00:16:14;12.63;;;5.40;;
46355;SDS011;32066;49.474;11.106;2023-10-09T00:18:49;9.80;;;5.47;;
46355;SDS011;32066;49.474;11.106;2023-10-09T00:21:19;8.15;;;5.60;;
46355;SDS011;32066;49.474;11.106;2023-10-09T00:23:53;9.07;;;5.65;;
46355;SDS011;32066;49.474;11.106;2023-10-09T00:26:27;11.82;;;5.13;;
46355;SDS011;32066;49.474;11.106;2023-10-09T00:28:57;13.25;;;5.80;;
46355;SDS011;32066;49.474;11.106;2023-10-09T00:31:30;12.70;;;5.80;;
46355;SDS011;32066;49.474;11.106;2023-10-09T00:33:59;9.33;;;5.17;;
46355;SDS011;32066;49.474;11.106;2023-10-09T00:36:44;9.80;;;5.40;;
46355;SDS011;32066;49.474;11.106;2023-10-09T00:39:19;9.68;;;5.18;;
46355;SDS011;32066;49.474;11.106;2023-10-09T00:42:10;10.93;;;5.00;;
46355;SDS011;32066;49.474;11.106;2023-10-09T00:44:52;11.13;;;5.57;;
46355;SDS011;32066;49.474;11.106;2023-10-09T00:47:21;10.88;;;5.63;;
46355;SDS011;32066;49.474;11.106;2023-10-09T00:49:53;13.25;;;5.65;;
46355;SDS011;32066;49.474;11.106;2023-10-09T00:52:35;10.30;;;4.95;;
46355;SDS011;32066;49.474;11.106;2023-10-09T00:55:09;11.30;;;6.38;;
46355;SDS011;32066;49.474;11.106;2023-10-09T00:57:50;14.35;;;5.97;;
46355;SDS011;32066;49.474;11.106;2023-10-09T01:00:23;12.23;;;5.68;;
46355;SDS011;32066;49.474;11.106;2023-10-09T01:02:58;11.65;;;5.22;;
46355;SDS011;32066;49.474;11.106;2023-10-09T01:05:44;11.25;;;5.60;;
46355;SDS011;32066;49.474;11.106;2023-10-09T01:08:17;17.65;;;5.75;;
46355;SDS011;32066;49.474;11.106;2023-10-09T01:10:55;10.75;;;5.93;;
46355;SDS011;32066;49.474;11.106;2023-10-09T01:13:36;13.68;;;6.25;;
46355;SDS011;32066;49.474;11.106;2023-10-09T01:16:18;13.02;;;6.10;;
46355;SDS011;32066;49.474;11.106;2023-10-09T01:18:48;9.30;;;5.65;;
46355;SDS011;32066;49.474;11.106;2023-10-09T01:21:17;10.15;;;5.07;;
46355;SDS011;32066;49.474;11.106;2023-10-09T01:23:52;10.30;;;5.88;;
46355;SDS011;32066;49.474;11.106;2023-10-09T01:26:34;11.68;;;5.18;;
46355;SDS011;32066;49.474;11.106;2023-10-09T01:29:09;11.32;;;5.30;;
46355;SDS011;32066;49.474;11.106;2023-10-09T01:31:39;10.27;;;5.47;;
46355;SDS011;32066;49.474;11.106;2023-10-09T01:34:12;12.35;;;5.40;;
46355;SDS011;32066;49.474;11.106;2023-10-09T01:36:42;10.13;;;5.83;;
46355;SDS011;32066;49.474;11.106;2023-10-09T01:39:16;11.83;;;6.07;;
46355;SDS011;32066;49.474;11.106;2023-10-09T01:41:52;13.70;;;6.38;;
46355;SDS011;32066;49.474;11.106;2023-10-09T01:44:26;12.63;;;5.93;;
46355;SDS011;32066;49.474;11.106;2023-10-09T01:46:59;11.60;;;5.38;;
46355;SDS011;32066;49.474;11.106;2023-10-09T01:49:32;12.07;;;6.25;;
46355;SDS011;32066;49.474;11.106;2023-10-09T01:52:02;9.90;;;6.03;;
46355;SDS011;32066;49.474;11.106;2023-10-09T01:54:37;10.15;;;5.72;;
46355;SDS011;32066;49.474;11.106;2023-10-09T01:57:08;12.27;;;5.60;;
46355;SDS011;32066;49.474;11.106;2023-10-09T01:59:41;12.23;;;5.53;;
46355;SDS011;32066;49.474;11.106;2023-10-09T02:02:14;11.38;;;6.32;;
46355;SDS011;32066;49.474;11.106;2023-10-09T02:04:58;11.82;;;6.00;;
46355;SDS011;32066;49.474;11.106;2023-10-09T02:07:48;12.15;;;6.40;;
46355;SDS011;32066;49.474;11.106;2023-10-09T02:10:22;13.20;;;6.45;;
46355;SDS011;32066;49.474;11.106;2023-10-09T02:13:03;13.83;;;6.43;;
46355;SDS011;32066;49.474;11.106;2023-10-09T02:15:35;10.90;;;6.10;;
46355;SDS011;32066;49.474;11.106;2023-10-09T02:18:16;13.05;;;6.53;;
46355;SDS011;32066;49.474;11.106;2023-10-09T02:20:52;13.57;;;6.40;;
46355;SDS011;32066;49.474;11.106;2023-10-09T02:23:38;11.25;;;6.63;;
46355;SDS011;32066;49.474;11.106;2023-10-09T02:26:14;11.35;;;6.20;;
46355;SDS011;32066;49.474;11.106;2023-10-09T02:28:50;13.82;;;6.43;;
46355;SDS011;32066;49.474;11.106;2023-10-09T02:31:24;12.90;;;6.90;;
46355;SDS011;32066;49.474;11.106;2023-10-09T02:34:00;16.63;;;6.05;;
46355;SDS011;32066;49.474;11.106;2023-10-09T02:36:30;11.70;;;6.05;;
46355;SDS011;32066;49.474;11.106;2023-10-09T02:38:59;16.23;;;6.78;;
46355;SDS011;32066;49.474;11.106;2023-10-09T02:41:33;9.77;;;5.88;;
46355;SDS011;32066;49.474;11.106;2023-10-09T02:44:14;12.63;;;5.93;;
46355;SDS011;32066;49.474;11.106;2023-10-09T02:46:49;13.63;;;7.15;;
46355;SDS011;32066;49.474;11.106;2023-10-09T02:49:23;11.75;;;5.72;;
46355;SDS011;32066;49.474;11.106;2023-10-09T02:51:52;13.32;;;6.25;;
46355;SDS011;32066;49.474;11.106;2023-10-09T02:54:20;11.65;;;5.95;;
46355;SDS011;32066;49.474;11.106;2023-10-09T02:57:04;16.10;;;6.93;;
46355;SDS011;32066;49.474;11.106;2023-10-09T02:59:47;11.00;;;6.63;;
46355;SDS011;32066;49.474;11.106;2023-10-09T03:02:17;11.20;;;6.20;;
46355;SDS011;32066;49.474;11.106;2023-10-09T03:04:48;11.05;;;6.07;;
46355;SDS011;32066;49.474;11.106;2023-10-09T03:07:20;15.02;;;6.35;;
46355;SDS011;32066;49.474;11.106;2023-10-09T03:09:49;17.08;;;6.30;;
46355;SDS011;32066;49.474;11.106;2023-10-09T03:12:20;13.00;;;6.32;;
46355;SDS011;32066;49.474;11.106;2023-10-09T03:14:52;12.32;;;6.05;;
46355;SDS011;32066;49.474;11.106;2023-10-09T03:17:27;12.73;;;6.10;;
46355;SDS011;32066;49.474;11.106;2023-10-09T03:19:59;15.95;;;7.88;;
46355;SDS011;32066;49.474;11.106;2023-10-09T03:22:37;14.13;;;6.32;;
46355;SDS011;32066;49.474;11.106;2023-10-09T03:25:07;19.40;;;7.15;;
46355;SDS011;32066;49.474;11.106;2023-10-09T03:27:42;14.60;;;6.85;;
46355;SDS011;32066;49.474;11.106;2023-10-09T03:30:13;14.02;;;6.45;;
46355;SDS011;32066;49.474;11.106;2023-10-09T03:32:47;12.75;;;6.60;;
46355;SDS011;32066;49.474;11.106;2023-10-09T03:35:17;16.83;;;6.28;;
46355;SDS011;32066;49.474;11.106;2023-10-09T03:37:50;13.05;;;6.10;;
46355;SDS011;32066;49.474;11.106;2023-10-09T03:40:22;17.08;;;7.60;;
46355;SDS011;32066;49.474;11.106;2023-10-09T03:42:55;15.05;;;6.65;;
46355;SDS011;32066;49.474;11.106;2023-10-09T03:45:23;14.70;;;6.82;;
46355;SDS011;32066;49.474;11.106;2023-10-09T03:47:55;14.30;;;6.97;;
46355;SDS011;32066;49.474;11.106;2023-10-09T03:50:28;12.50;;;6.43;;
46355;SDS011;32066;49.474;11.106;2023-10-09T03:53:03;13.95;;;7.15;;
46355;SDS011;32066;49.474;11.106;2023-10-09T03:55:38;18.20;;;7.25;;
46355;SDS011;32066;49.474;11.106;2023-10-09T03:58:10;13.88;;;6.43;;
46355;SDS011;32066;49.474;11.106;2023-10-09T04:00:40;17.33;;;6.93;;
46355;SDS011;32066;49.474;11.106;2023-10-09T04:03:14;11.73;;;7.03;;
46355;SDS011;32066;49.474;11.106;2023-10-09T04:05:45;14.43;;;6.30;;
46355;SDS011;32066;49.474;11.106;2023-10-09T04:08:17;12.73;;;6.13;;
46355;SDS011;32066;49.474;11.106;2023-10-09T04:10:54;14.05;;;6.50;;
46355;SDS011;32066;49.474;11.106;2023-10-09T04:13:30;13.45;;;7.30;;
46355;SDS011;32066;49.474;11.106;2023-10-09T04:16:01;14.55;;;7.53;;
46355;SDS011;32066;49.474;11.106;2023-10-09T04:18:36;19.52;;;6.82;;
46355;SDS011;32066;49.474;11.106;2023-10-09T04:21:09;13.45;;;7.35;;
46355;SDS011;32066;49.474;11.106;2023-10-09T04:23:44;15.65;;;7.25;;
46355;SDS011;32066;49.474;11.106;2023-10-09T04:26:35;10.73;;;6.32;;
46355;SDS011;32066;49.474;11.106;2023-10-09T04:29:05;13.00;;;6.72;;
46355;SDS011;32066;49.474;11.106;2023-10-09T04:31:35;15.43;;;7.30;;
46355;SDS011;32066;49.474;11.106;2023-10-09T04:34:05;12.63;;;6.68;;
46355;SDS011;32066;49.474;11.106;2023-10-09T04:36:46;11.45;;;6.47;;
46355;SDS011;32066;49.474;11.106;2023-10-09T04:39:15;12.85;;;7.10;;
46355;SDS011;32066;49.474;11.106;2023-10-09T04:42:02;16.58;;;7.57;;
46355;SDS011;32066;49.474;11.106;2023-10-09T04:44:47;12.20;;;6.68;;
46355;SDS011;32066;49.474;11.106;2023-10-09T04:47:40;16.93;;;7.37;;
46355;SDS011;32066;49.474;11.106;2023-10-09T04:50:14;16.15;;;8.00;;
46355;SDS011;32066;49.474;11.106;2023-10-09T04:52:56;16.60;;;7.55;;
46355;SDS011;32066;49.474;11.106;2023-10-09T04:55:44;18.13;;;7.97;;
46355;SDS011;32066;49.474;11.106;2023-10-09T04:58:22;13.70;;;6.85;;
46355;SDS011;32066;49.474;11.106;2023-10-09T05:00:55;13.48;;;7.13;;
46355;SDS011;32066;49.474;11.106;2023-10-09T05:03:38;15.68;;;6.45;;
46355;SDS011;32066;49.474;11.106;2023-10-09T05:06:22;14.57;;;7.03;;
46355;SDS011;32066;49.474;11.106;2023-10-09T05:09:20;16.42;;;6.82;;
46355;SDS011;32066;49.474;11.106;2023-10-09T05:11:47;18.63;;;7.30;;
46355;SDS011;32066;49.474;11.106;2023-10-09T05:14:34;13.93;;;6.95;;
46355;SDS011;32066;49.474;11.106;2023-10-09T05:17:15;15.88;;;7.00;;
46355;SDS011;32066;49.474;11.106;2023-10-09T05:19:50;12.55;;;6.65;;
46355;SDS011;32066;49.474;11.106;2023-10-09T05:22:46;12.40;;;6.50;;
46355;SDS011;32066;49.474;11.106;2023-10-09T05:25:40;14.57;;;7.18;;
46355;SDS011;32066;49.474;11.106;2023-10-09T05:28:21;11.80;;;6.72;;
46355;SDS011;32066;49.474;11.106;2023-10-09T05:30:56;10.75;;;6.13;;
46355;SDS011;32066;49.474;11.106;2023-10-09T05:33:34;14.55;;;6.90;;
46355;SDS011;32066;49.474;11.106;2023-10-09T05:36:05;13.63;;;6.57;;
46355;SDS011;32066;49.474;11.106;2023-10-09T05:38:56;13.63;;;6.40;;
46355;SDS011;32066;49.474;11.106;2023-10-09T05:41:43;13.95;;;6.60;;
46355;SDS011;32066;49.474;11.106;2023-10-09T05:44:18;14.68;;;7.18;;
46355;SDS011;32066;49.474;11.106;2023-10-09T05:46:59;17.52;;;6.90;;
46355;SDS011;32066;49.474;11.106;2023-10-09T05:49:43;14.95;;;7.75;;
46355;SDS011;32066;49.474;11.106;2023-10-09T05:52:20;17.08;;;6.90;;
46355;SDS011;32066;49.474;11.106;2023-10-09T05:54:57;17.08;;;7.70;;
46355;SDS011;32066;49.474;11.106;2023-10-09T05:57:38;18.33;;;7.18;;
46355;SDS011;32066;49.474;11.106;2023-10-09T06:00:26;15.20;;;7.10;;
46355;SDS011;32066;49.474;11.106;2023-10-09T06:03:07;16.00;;;7.75;;
46355;SDS011;32066;49.474;11.106;2023-10-09T06:05:54;13.73;;;7.72;;
46355;SDS011;32066;49.474;11.106;2023-10-09T06:08:31;13.65;;;7.10;;
46355;SDS011;32066;49.474;11.106;2023-10-09T06:11:35;18.45;;;6.63;;
46355;SDS011;32066;49.474;11.106;2023-10-09T06:14:03;15.25;;;7.22;;
46355;SDS011;32066;49.474;11.106;2023-10-09T06:16:38;19.33;;;7.82;;
46355;SDS011;32066;49.474;11.106;2023-10-09T06:19:06;14.68;;;7.60;;
46355;SDS011;32066;49.474;11.106;2023-10-09T06:21:54;15.35;;;7.43;;
46355;SDS011;32066;49.474;11.106;2023-10-09T06:25:05;18.00;;;7.97;;
46355;SDS011;32066;49.474;11.106;2023-10-09T06:27:37;15.13;;;7.20;;
46355;SDS011;32066;49.474;11.106;2023-10-09T06:30:18;16.52;;;7.82;;
46355;SDS011;32066;49.474;11.106;2023-10-09T06:32:52;17.17;;;8.07;;
46355;SDS011;32066;49.474;11.106;2023-10-09T06:35:33;15.55;;;7.22;;
46355;SDS011;32066;49.474;11.106;2023-10-09T06:38:07;19.10;;;8.00;;
46355;SDS011;32066;49.474;11.106;2023-10-09T06:40:47;16.05;;;6.97;;
46355;SDS011;32066;49.474;11.106;2023-10-09T06:43:29;20.20;;;7.68;;
46355;SDS011;32066;49.474;11.106;2023-10-09T06:46:02;17.30;;;7.63;;
46355;SDS011;32066;49.474;11.106;2023-10-09T06:48:45;14.43;;;8.45;;
46355;SDS011;32066;49.474;11.106;2023-10-09T06:51:25;15.70;;;7.93;;
46355;SDS011;32066;49.474;11.106;2023-10-09T06:54:08;17.17;;;7.80;;
46355;SDS011;32066;49.474;11.106;2023-10-09T06:56:40;16.25;;;7.65;;
46355;SDS011;32066;49.474;11.106;2023-10-09T06:59:21;16.77;;;7.50;;
46355;SDS011;32066;49.474;11.106;2023-10-09T07:02:06;15.60;;;7.63;;
46355;SDS011;32066;49.474;11.106;2023-10-09T07:04:48;16.73;;;7.35;;
46355;SDS011;32066;49.474;11.106;2023-10-09T07:07:20;18.42;;;8.55;;
46355;SDS011;32066;49.474;11.106;2023-10-09T07:09:52;16.77;;;7.47;;
46355;SDS011;32066;49.474;11.106;2023-10-09T07:12:48;16.30;;;7.97;;
46355;SDS011;32066;49.474;11.106;2023-10-09T07:15:20;22.33;;;8.43;;
46355;SDS011;32066;49.474;11.106;2023-10-09T07:18:01;22.40;;;8.52;;
46355;SDS011;32066;49.474;11.106;2023-10-09T07:20:44;25.13;;;7.78;;
46355;SDS011;32066;49.474;11.106;2023-10-09T07:23:24;17.48;;;7.60;;
46355;SDS011;32066;49.474;11.106;2023-10-09T07:26:04;16.77;;;8.40;;
46355;SDS011;32066;49.474;11.106;2023-10-09T07:29:02;21.02;;;7.93;;
46355;SDS011;32066;49.474;11.106;2023-10-09T07:31:47;16.63;;;7.72;;
46355;SDS011;32066;49.474;11.106;2023-10-09T07:34:23;14.65;;;7.25;;
46355;SDS011;32066;49.474;11.106;2023-10-09T07:37:18;15.55;;;7.13;;
46355;SDS011;32066;49.474;11.106;2023-10-09T07:39:48;18.98;;;7.60;;
46355;SDS011;32066;49.474;11.106;2023-10-09T07:42:25;16.85;;;7.25;;
46355;SDS011;32066;49.474;11.106;2023-10-09T07:45:09;21.20;;;7.78;;
46355;SDS011;32066;49.474;11.106;2023-10-09T07:47:59;22.58;;;7.05;;
46355;SDS011;32066;49.474;11.106;2023-10-09T07:50:28;17.52;;;8.45;;
46355;SDS011;32066;49.474;11.106;2023-10-09T07:53:03;17.60;;;7.65;;
46355;SDS011;32066;49.474;11.106;2023-10-09T07:55:43;20.60;;;7.45;;
46355;SDS011;32066;49.474;11.106;2023-10-09T07:58:22;19.23;;;8.23;;
46355;SDS011;32066;49.474;11.106;2023-10-09T08:00:53;24.38;;;7.65;;
46355;SDS011;32066;49.474;11.106;2023-10-09T08:03:47;23.48;;;7.57;;
46355;SDS011;32066;49.474;11.106;2023-10-09T08:06:23;20.90;;;6.85;;
46355;SDS011;32066;49.474;11.106;2023-10-09T08:09:10;20.13;;;6.95;;
46355;SDS011;32066;49.474;11.106;2023-10-09T08:12:04;25.15;;;7.45;;
46355;SDS011;32066;49.474;11.106;2023-10-09T08:14:42;20.13;;;7.57;;
46355;SDS011;32066;49.474;11.106;2023-10-09T08:17:13;20.48;;;7.75;;
46355;SDS011;32066;49.474;11.106;2023-10-09T08:19:41;17.15;;;7.25;;
46355;SDS011;32066;49.474;11.106;2023-10-09T08:22:23;19.73;;;7.07;;
46355;SDS011;32066;49.474;11.106;2023-10-09T08:25:05;19.27;;;6.47;;
46355;SDS011;32066;49.474;11.106;2023-10-09T08:27:51;13.68;;;6.68;;
46355;SDS011;32066;49.474;11.106;2023-10-09T08:30:26;27.95;;;7.25;;
46355;SDS011;32066;49.474;11.106;2023-10-09T08:33:09;18.70;;;6.22;;
46355;SDS011;32066;49.474;11.106;2023-10-09T08:35:50;16.55;;;5.70;;
46355;SDS011;32066;49.474;11.106;2023-10-09T08:38:21;19.65;;;6.50;;
46355;SDS011;32066;49.474;11.106;2023-10-09T08:40:52;18.65;;;6.13;;
46355;SDS011;32066;49.474;11.106;2023-10-09T08:43:23;15.93;;;5.32;;
46355;SDS011;32066;49.474;11.106;2023-10-09T08:45:58;16.42;;;5.55;;
46355;SDS011;32066;49.474;11.106;2023-10-09T08:48:28;22.77;;;5.70;;
46355;SDS011;32066;49.474;11.106;2023-10-09T08:50:58;18.38;;;5.43;;
46355;SDS011;32066;49.474;11.106;2023-10-09T08:53:31;19.38;;;5.38;;
46355;SDS011;32066;49.474;11.106;2023-10-09T08:56:00;22.05;;;6.20;;
46355;SDS011;32066;49.474;11.106;2023-10-09T08:58:28;17.23;;;6.15;;
46355;SDS011;32066;49.474;11.106;2023-10-09T09:01:04;17.10;;;5.43;;
46355;SDS011;32066;49.474;11.106;2023-10-09T09:03:40;16.40;;;5.28;;
46355;SDS011;32066;49.474;11.106;2023-10-09T09:06:09;17.73;;;5.30;;
46355;SDS011;32066;49.474;11.106;2023-10-09T09:08:39;20.83;;;6.03;;
46355;SDS011;32066;49.474;11.106;2023-10-09T09:11:10;16.00;;;5.25;;
46355;SDS011;32066;49.474;11.106;2023-10-09T09:13:42;17.50;;;5.82;;
46355;SDS011;32066;49.474;11.106;2023-10-09T09:16:18;17.50;;;4.97;;
46355;SDS011;32066;49.474;11.106;2023-10-09T09:18:52;14.52;;;5.65;;
46355;SDS011;32066;49.474;11.106;2023-10-09T09:21:28;15.45;;;5.15;;
46355;SDS011;32066;49.474;11.106;2023-10-09T09:24:03;14.67;;;5.37;;
46355;SDS011;32066;49.474;11.106;2023-10-09T09:26:41;15.25;;;5.50;;
46355;SDS011;32066;49.474;11.106;2023-10-09T09:29:24;15.50;;;5.35;;
46355;SDS011;32066;49.474;11.106;2023-10-09T09:32:08;16.30;;;4.88;;
46355;SDS011;32066;49.474;11.106;2023-10-09T09:34:45;19.45;;;4.88;;
46355;SDS011;32066;49.474;11.106;2023-10-09T09:37:18;19.27;;;4.72;;
46355;SDS011;32066;49.474;11.106;2023-10-09T09:39:47;14.68;;;5.18;;
46355;SDS011;32066;49.474;11.106;2023-10-09T09:42:17;18.67;;;6.38;;
46355;SDS011;32066;49.474;11.106;2023-10-09T09:44:51;19.98;;;6.65;;
46355;SDS011;32066;49.474;11.106;2023-10-09T09:47:23;20.25;;;6.43;;
46355;SDS011;32066;49.474;11.106;2023-10-09T09:49:52;17.63;;;6.07;;
46355;SDS011;32066;49.474;11.106;2023-10-09T09:52:25;16.77;;;6.53;;
46355;SDS011;32066;49.474;11.106;2023-10-09T09:55:05;21.52;;;6.82;;
46355;SDS011;32066;49.474;11.106;2023-10-09T09:57:39;23.08;;;6.53;;
46355;SDS011;32066;49.474;11.106;2023-10-09T10:00:11;16.17;;;6.10;;
46355;SDS011;32066;49.474;11.106;2023-10-09T10:02:57;19.75;;;5.93;;
46355;SDS011;32066;49.474;11.106;2023-10-09T10:05:33;12.98;;;5.63;;
46355;SDS011;32066;49.474;11.106;2023-10-09T10:08:03;18.75;;;6.13;;
46355;SDS011;32066;49.474;11.106;2023-10-09T10:10:38;18.20;;;5.80;;
46355;SDS011;32066;49.474;11.106;2023-10-09T10:13:13;19.10;;;6.00;;
46355;SDS011;32066;49.474;11.106;2023-10-09T10:15:57;18.35;;;5.85;;
46355;SDS011;32066;49.474;11.106;2023-10-09T10:18:57;15.57;;;5.77;;
46355;SDS011;32066;49.474;11.106;2023-10-09T10:21:46;16.77;;;5.13;;
46355;SDS011;32066;49.474;11.106;2023-10-09T10:27:20;16.65;;;5.60;;
46355;SDS011;32066;49.474;11.106;2023-10-09T10:32:57;17.33;;;5.85;;
46355;SDS011;32066;49.474;11.106;2023-10-09T10:35:37;18.77;;;5.72;;
46355;SDS011;32066;49.474;11.106;2023-10-09T10:38:27;18.83;;;6.65;;
46355;SDS011;32066;49.474;11.106;2023-10-09T10:41:11;17.23;;;5.85;;
46355;SDS011;32066;49.474;11.106;2023-10-09T10:43:41;21.27;;;6.03;;
46355;SDS011;32066;49.474;11.106;2023-10-09T10:46:24;21.48;;;6.32;;
46355;SDS011;32066;49.474;11.106;2023-10-09T10:49:00;18.77;;;6.27;;
46355;SDS011;32066;49.474;11.106;2023-10-09T10:51:42;14.18;;;5.63;;
46355;SDS011;32066;49.474;11.106;2023-10-09T10:57:17;17.77;;;5.82;;
46355;SDS011;32066;49.474;11.106;2023-10-09T10:59:54;21.88;;;6.60;;
46355;SDS011;32066;49.474;11.106;2023-10-09T11:02:39;14.13;;;5.73;;
46355;SDS011;32066;49.474;11.106;2023-10-09T11:05:08;15.35;;;6.38;;
46355;SDS011;32066;49.474;11.106;2023-10-09T11:07:52;16.95;;;5.65;;
46355;SDS011;32066;49.474;11.106;2023-10-09T11:10:26;19.77;;;5.30;;
46355;SDS011;32066;49.474;11.106;2023-10-09T11:12:56;15.10;;;5.55;;
46355;SDS011;32066;49.474;11.106;2023-10-09T11:15:38;17.55;;;5.55;;
46355;SDS011;32066;49.474;11.106;2023-10-09T11:18:21;17.35;;;5.32;;
46355;SDS011;32066;49.474;11.106;2023-10-09T11:20:52;18.35;;;6.40;;
46355;SDS011;32066;49.474;11.106;2023-10-09T11:23:47;17.65;;;4.97;;
46355;SDS011;32066;49.474;11.106;2023-10-09T11:26:23;26.17;;;5.40;;
46355;SDS011;32066;49.474;11.106;2023-10-09T11:31:58;21.77;;;5.65;;
46355;SDS011;32066;49.474;11.106;2023-10-09T11:34:29;15.90;;;4.97;;
46355;SDS011;32066;49.474;11.106;2023-10-09T11:36:59;19.15;;;5.18;;
46355;SDS011;32066;49.474;11.106;2023-10-09T11:39:34;13.60;;;4.83;;
46355;SDS011;32066;49.474;11.106;2023-10-09T11:42:01;21.75;;;5.03;;
46355;SDS011;32066;49.474;11.106;2023-10-09T11:44:35;18.33;;;5.07;;
46355;SDS011;32066;49.474;11.106;2023-10-09T11:47:05;17.55;;;4.90;;
46355;SDS011;32066;49.474;11.106;2023-10-09T11:49:47;16.17;;;4.85;;
46355;SDS011;32066;49.474;11.106;2023-10-09T11:52:22;19.95;;;5.28;;
46355;SDS011;32066;49.474;11.106;2023-10-09T11:55:06;18.25;;;5.50;;
46355;SDS011;32066;49.474;11.106;2023-10-09T11:57:40;20.15;;;5.20;;
46355;SDS011;32066;49.474;11.106;2023-10-09T12:00:07;18.04;;;5.04;;
46355;SDS011;32066;49.474;11.106;2023-10-09T12:02:54;16.17;;;5.00;;
46355;SDS011;32066;49.474;11.106;2023-10-09T12:05:30;14.82;;;5.47;;
46355;SDS011;32066;49.474;11.106;2023-10-09T12:08:03;17.40;;;5.22;;
46355;SDS011;32066;49.474;11.106;2023-10-09T12:10:36;24.42;;;5.80;;
46355;SDS011;32066;49.474;11.106;2023-10-09T12:13:05;18.77;;;5.20;;
46355;SDS011;32066;49.474;11.106;2023-10-09T12:15:34;24.67;;;5.22;;
46355;SDS011;32066;49.474;11.106;2023-10-09T12:18:06;21.73;;;5.60;;
46355;SDS011;32066;49.474;11.106;2023-10-09T12:20:42;17.98;;;5.15;;
46355;SDS011;32066;49.474;11.106;2023-10-09T12:23:16;16.63;;;4.78;;
46355;SDS011;32066;49.474;11.106;2023-10-09T12:25:48;19.23;;;4.82;;
46355;SDS011;32066;49.474;11.106;2023-10-09T12:28:21;15.13;;;4.82;;
46355;SDS011;32066;49.474;11.106;2023-10-09T12:30:50;12.13;;;4.93;;
46355;SDS011;32066;49.474;11.106;2023-10-09T12:33:19;24.13;;;5.93;;
46355;SDS011;32066;49.474;11.106;2023-10-09T12:35:53;16.98;;;5.72;;
46355;SDS011;32066;49.474;11.106;2023-10-09T12:38:25;16.63;;;5.45;;
46355;SDS011;32066;49.474;11.106;2023-10-09T12:41:03;21.10;;;5.68;;
46355;SDS011;32066;49.474;11.106;2023-10-09T12:43:44;20.20;;;5.32;;
46355;SDS011;32066;49.474;11.106;2023-10-09T12:46:13;17.03;;;5.23;;
46355;SDS011;32066;49.474;11.106;2023-10-09T12:48:42;19.20;;;5.47;;
46355;SDS011;32066;49.474;11.106;2023-10-09T12:51:13;25.40;;;5.63;;
46355;SDS011;32066;49.474;11.106;2023-10-09T12:53:42;22.17;;;6.70;;
46355;SDS011;32066;49.474;11.106;2023-10-09T12:56:16;17.58;;;5.50;;
46355;SDS011;32066;49.474;11.106;2023-10-09T12:58:45;21.90;;;5.55;;
46355;SDS011;32066;49.474;11.106;2023-10-09T13:01:22;22.30;;;5.18;;
46355;SDS011;32066;49.474;11.106;2023-10-09T13:03:50;17.65;;;5.82;;
46355;SDS011;32066;49.474;11.106;2023-10-09T13:06:19;21.42;;;5.90;;
46355;SDS011;32066;49.474;11.106;2023-10-09T13:08:50;19.92;;;5.53;;
46355;SDS011;32066;49.474;11.106;2023-10-09T13:11:21;17.67;;;5.30;;
46355;SDS011;32066;49.474;11.106;2023-10-09T13:13:50;20.55;;;5.43;;
46355;SDS011;32066;49.474;11.106;2023-10-09T13:16:20;19.77;;;5.43;;
46355;SDS011;32066;49.474;11.106;2023-10-09T13:18:51;20.10;;;5.80;;
46355;SDS011;32066;49.474;11.106;2023-10-09T13:21:22;18.85;;;6.28;;
46355;SDS011;32066;49.474;11.106;2023-10-09T13:23:52;20.05;;;6.03;;
46355;SDS011;32066;49.474;11.106;2023-10-09T13:26:25;19.10;;;5.53;;
46355;SDS011;32066;49.474;11.106;2023-10-09T13:28:55;15.65;;;5.85;;
46355;SDS011;32066;49.474;11.106;2023-10-09T13:31:26;18.33;;;5.68;;
46355;SDS011;32066;49.474;11.106;2023-10-09T13:33:57;15.95;;;4.95;;
46355;SDS011;32066;49.474;11.106;2023-10-09T13:36:31;19.52;;;5.60;;
46355;SDS011;32066;49.474;11.106;2023-10-09T13:39:01;16.88;;;5.20;;
46355;SDS011;32066;49.474;11.106;2023-10-09T13:41:49;17.57;;;5.60;;
46355;SDS011;32066;49.474;11.106;2023-10-09T13:44:23;16.48;;;5.22;;
46355;SDS011;32066;49.474;11.106;2023-10-09T13:46:54;15.93;;;5.15;;
46355;SDS011;32066;49.474;11.106;2023-10-09T13:49:22;15.30;;;4.70;;
46355;SDS011;32066;49.474;11.106;2023-10-09T13:51:54;14.90;;;5.40;;
46355;SDS011;32066;49.474;11.106;2023-10-09T13:54:23;17.60;;;4.93;;
46355;SDS011;32066;49.474;11.106;2023-10-09T13:57:07;20.13;;;5.65;;
46355;SDS011;32066;49.474;11.106;2023-10-09T13:59:36;19.75;;;4.72;;
46355;SDS011;32066;49.474;11.106;2023-10-09T14:02:08;18.30;;;5.72;;
46355;SDS011;32066;49.474;11.106;2023-10-09T14:04:42;16.55;;;4.80;;
46355;SDS011;32066;49.474;11.106;2023-10-09T14:07:11;13.63;;;4.78;;
46355;SDS011;32066;49.474;11.106;2023-10-09T14:09:42;13.90;;;5.50;;
46355;SDS011;32066;49.474;11.106;2023-10-09T14:12:23;14.73;;;5.60;;
46355;SDS011;32066;49.474;11.106;2023-10-09T14:14:54;17.67;;;5.40;;
46355;SDS011;32066;49.474;11.106;2023-10-09T14:17:25;16.65;;;5.60;;
46355;SDS011;32066;49.474;11.106;2023-10-09T14:19:54;17.25;;;5.15;;
46355;SDS011;32066;49.474;11.106;2023-10-09T14:22:44;16.98;;;5.25;;
46355;SDS011;32066;49.474;11.106;2023-10-09T14:25:17;17.77;;;5.25;;
46355;SDS011;32066;49.474;11.106;2023-10-09T14:27:49;17.65;;;5.57;;
46355;SDS011;32066;49.474;11.106;2023-10-09T14:30:18;13.77;;;4.93;;
46355;SDS011;32066;49.474;11.106;2023-10-09T14:32:55;13.63;;;5.20;;
46355;SDS011;32066;49.474;11.106;2023-10-09T14:35:27;12.98;;;4.80;;
46355;SDS011;32066;49.474;11.106;2023-10-09T14:37:55;16.40;;;4.78;;
46355;SDS011;32066;49.474;11.106;2023-10-09T14:40:27;19.92;;;5.65;;
46355;SDS011;32066;49.474;11.106;2023-10-09T14:43:00;13.23;;;4.80;;
46355;SDS011;32066;49.474;11.106;2023-10-09T14:45:28;15.27;;;4.53;;
46355;SDS011;32066;49.474;11.106;2023-10-09T14:47:57;14.52;;;5.25;;
46355;SDS011;32066;49.474;11.106;2023-10-09T14:50:26;10.18;;;4.20;;
46355;SDS011;32066;49.474;11.106;2023-10-09T14:52:55;12.18;;;5.25;;
46355;SDS011;32066;49.474;11.106;2023-10-09T14:55:26;16.85;;;5.05;;
46355;SDS011;32066;49.474;11.106;2023-10-09T14:57:56;10.68;;;4.70;;
46355;SDS011;32066;49.474;11.106;2023-10-09T15:00:28;14.20;;;5.40;;
46355;SDS011;32066;49.474;11.106;2023-10-09T15:02:59;12.18;;;4.57;;
46355;SDS011;32066;49.474;11.106;2023-10-09T15:05:28;13.82;;;4.60;;
46355;SDS011;32066;49.474;11.106;2023-10-09T15:07:59;9.80;;;4.80;;
46355;SDS011;32066;49.474;11.106;2023-10-09T15:10:29;17.90;;;5.65;;
46355;SDS011;32066;49.474;11.106;2023-10-09T15:13:00;12.27;;;5.07;;
46355;SDS011;32066;49.474;11.106;2023-10-09T15:15:29;12.40;;;5.28;;
46355;SDS011;32066;49.474;11.106;2023-10-09T15:17:58;12.98;;;5.55;;
46355;SDS011;32066;49.474;11.106;2023-10-09T15:20:28;13.23;;;5.15;;
46355;SDS011;32066;49.474;11.106;2023-10-09T15:22:57;11.52;;;5.00;;